Time;durP1;ratioP1;P1;durP2;ratioP2;P2;SDS_P1;SDS_P2;PMS_P1;PMS_P2;Temp;Humidity;BMP_temperature;BMP_pressure;BME280_temperature;BME280_humidity;BME280_pressure;Samples;Min_cycle;Max_cycle;Signal;HPM_P1;HPM_P2
2021/05/10 00:01:54;;;;;;;2.42;2.22;;;;;;;9.07;50.50;99725.45;1639147;84;21373;-60
2021/05/10 00:04:22;;;;;;;3.22;2.70;;;;;;;9.03;50.67;99732.88;1669818;84;21184;-60
2021/05/10 00:06:49;;;;;;;3.20;2.70;;;;;;;9.00;50.80;99729.69;1654114;85;21176;-58
2021/05/10 00:09:18;;;;;;;2.60;2.02;;;;;;;8.97;50.90;99732.16;1654845;84;20955;-60
2021/05/10 00:11:46;;;;;;;3.00;2.27;;;;;;;8.94;50.96;99728.47;1693663;84;21171;-59
2021/05/10 00:14:13;;;;;;;2.27;2.08;;;;;;;8.92;51.08;99725.64;1675812;85;21227;-59
2021/05/10 00:16:41;;;;;;;2.40;2.17;;;;;;;8.91;51.12;99726.64;1673614;85;21231;-61
2021/05/10 00:19:11;;;;;;;3.62;2.52;;;;;;;8.88;51.20;99730.44;1692284;84;21095;-59
2021/05/10 00:21:38;;;;;;;3.00;2.22;;;;;;;8.86;51.27;99727.59;1677250;85;21142;-59
2021/05/10 00:24:07;;;;;;;7.37;2.75;;;;;;;8.85;51.39;99735.20;1679539;85;20941;-57
2021/05/10 00:26:35;;;;;;;2.85;2.42;;;;;;;8.83;51.54;99729.22;1681088;84;21615;-57
2021/05/10 00:29:03;;;;;;;5.00;2.33;;;;;;;8.80;51.64;99725.55;1676313;84;21176;-58
2021/05/10 00:31:31;;;;;;;5.28;2.60;;;;;;;8.77;51.77;99729.34;1670200;85;21089;-57
2021/05/10 00:34:00;;;;;;;3.22;2.30;;;;;;;8.74;51.91;99730.12;1670187;85;21077;-58
2021/05/10 00:36:27;;;;;;;3.37;3.00;;;;;;;8.69;52.03;99726.13;1679514;85;21125;-59
2021/05/10 00:38:55;;;;;;;2.98;2.62;;;;;;;8.67;52.12;99729.43;1673275;84;22834;-58
2021/05/10 00:41:22;;;;;;;2.65;2.45;;;;;;;8.68;52.21;99727.09;1673317;84;21073;-58
2021/05/10 00:43:50;;;;;;;3.33;2.70;;;;;;;8.68;52.27;99724.45;1673246;84;20986;-58
2021/05/10 00:46:17;;;;;;;3.72;2.83;;;;;;;8.71;52.33;99726.48;1675797;84;21123;-58
2021/05/10 00:48:45;;;;;;;3.92;2.70;;;;;;;8.73;52.34;99731.12;1674326;84;21204;-58
2021/05/10 00:51:12;;;;;;;5.92;2.72;;;;;;;8.73;52.35;99731.97;1677825;84;21197;-58
2021/05/10 00:53:40;;;;;;;3.52;2.90;;;;;;;8.75;52.42;99721.20;1676201;83;21114;-58
2021/05/10 00:56:07;;;;;;;2.40;2.20;;;;;;;8.74;52.51;99719.03;1682864;83;21104;-58
2021/05/10 00:58:35;;;;;;;3.27;2.67;;;;;;;8.75;52.47;99726.02;1655644;85;21149;-58
2021/05/10 01:01:02;;;;;;;2.95;2.50;;;;;;;8.76;52.58;99718.37;1679256;84;21589;-57
2021/05/10 01:03:30;;;;;;;4.12;2.70;;;;;;;8.76;52.65;99717.57;1672722;84;21229;-59
2021/05/10 01:05:58;;;;;;;3.08;2.72;;;;;;;8.75;52.71;99711.91;1632900;84;21673;-58
2021/05/10 01:08:26;;;;;;;3.12;2.50;;;;;;;8.75;52.80;99711.91;1677529;84;21094;-57
2021/05/10 01:10:54;;;;;;;3.33;2.67;;;;;;;8.73;52.90;99708.09;1672918;85;21145;-57
2021/05/10 01:13:23;;;;;;;3.10;2.80;;;;;;;8.71;53.05;99706.59;1678461;84;21183;-58
2021/05/10 01:15:51;;;;;;;3.52;3.20;;;;;;;8.66;53.14;99706.53;1683809;83;21225;-59
2021/05/10 01:18:21;;;;;;;2.90;2.60;;;;;;;8.66;53.23;99703.88;1680690;84;21107;-59
2021/05/10 01:20:50;;;;;;;4.12;2.77;;;;;;;8.65;53.29;99701.39;1685354;84;20969;-58
2021/05/10 01:23:18;;;;;;;3.67;3.33;;;;;;;8.64;53.41;99710.33;1677130;85;21109;-59
2021/05/10 01:25:45;;;;;;;4.03;2.67;;;;;;;8.61;53.54;99707.48;1673367;85;21630;-58
2021/05/10 01:28:15;;;;;;;2.77;2.55;;;;;;;8.58;53.68;99713.58;1673414;85;21033;-58
2021/05/10 01:30:47;;;;;;;3.95;3.08;;;;;;;8.52;53.86;99717.69;1674898;84;21213;-59
2021/05/10 01:33:12;;;;;;;3.52;2.58;;;;;;;8.49;54.01;99709.20;1673282;85;21104;-59
2021/05/10 01:35:43;;;;;;;3.02;2.72;;;;;;;8.44;54.14;99710.98;1673417;85;21190;-58
2021/05/10 01:38:11;;;;;;;2.75;2.52;;;;;;;8.40;54.31;99715.39;1688417;84;20954;-59
2021/05/10 01:40:40;;;;;;;3.47;2.85;;;;;;;8.33;54.48;99711.69;1671281;84;21393;-58
2021/05/10 01:43:09;;;;;;;3.77;2.62;;;;;;;8.29;54.71;99718.28;1639527;86;20974;-59
2021/05/10 01:45:37;;;;;;;3.10;2.72;;;;;;;8.26;54.88;99719.87;1654587;86;21201;-59
2021/05/10 01:48:07;;;;;;;3.47;3.17;;;;;;;8.24;54.94;99718.67;1641855;85;21602;-59
2021/05/10 01:50:35;;;;;;;6.75;3.00;;;;;;;8.22;55.06;99715.84;1669542;84;21085;-59
2021/05/10 01:53:03;;;;;;;4.55;2.83;;;;;;;8.22;55.15;99714.51;1664788;85;21419;-58
2021/05/10 01:55:30;;;;;;;2.80;2.60;;;;;;;8.20;55.23;99705.40;1660777;86;21732;-58
2021/05/10 01:57:59;;;;;;;3.70;2.98;;;;;;;8.18;55.41;99703.39;1666060;84;21213;-59
2021/05/10 02:00:31;;;;;;;4.65;2.85;;;;;;;8.16;55.43;99706.66;1644091;86;21174;-59
2021/05/10 02:03:04;;;;;;;3.45;2.47;;;;;;;8.15;55.51;99707.66;1678493;84;21166;-58
2021/05/10 02:05:32;;;;;;;3.17;2.60;;;;;;;8.17;55.54;99704.84;1642997;86;21218;-59
2021/05/10 02:08:01;;;;;;;3.98;2.27;;;;;;;8.16;55.57;99701.36;1668206;84;21086;-59
2021/05/10 02:10:33;;;;;;;3.27;2.98;;;;;;;8.17;55.63;99703.53;1660524;86;21152;-59
2021/05/10 02:13:12;;;;;;;3.17;2.58;;;;;;;8.17;55.67;99700.39;1673675;84;21096;-58
2021/05/10 02:15:45;;;;;;;3.00;2.70;;;;;;;8.17;55.69;99702.20;1661731;86;21050;-59
2021/05/10 02:18:15;;;;;;;3.55;2.95;;;;;;;8.14;55.83;99700.69;1666083;84;22107;-58
2021/05/10 02:20:43;;;;;;;3.02;2.67;;;;;;;8.13;55.90;99700.84;1665873;84;21189;-59
2021/05/10 02:23:18;;;;;;;4.42;3.27;;;;;;;8.11;56.01;99702.30;1667665;84;21121;-58
2021/05/10 02:25:55;;;;;;;5.08;2.70;;;;;;;8.08;56.09;99696.00;1666035;84;21133;-58
2021/05/10 02:28:25;;;;;;;4.00;2.95;;;;;;;8.03;56.23;99693.77;1666206;84;21176;-58
2021/05/10 02:30:54;;;;;;;4.42;3.02;;;;;;;8.00;56.31;99701.20;1666032;84;22087;-58
2021/05/10 02:33:25;;;;;;;3.37;2.65;;;;;;;8.00;56.46;99695.91;1667700;84;21590;-59
2021/05/10 02:35:53;;;;;;;3.02;2.72;;;;;;;7.98;56.58;99700.02;1671469;84;21217;-58
2021/05/10 02:38:21;;;;;;;3.70;2.83;;;;;;;7.97;56.75;99701.50;1657985;86;21096;-58
2021/05/10 02:40:50;;;;;;;4.62;2.47;;;;;;;7.96;56.80;99705.12;1663992;85;21122;-60
2021/05/10 02:43:20;;;;;;;3.15;2.58;;;;;;;7.95;56.88;99698.17;1666832;85;21412;-60
2021/05/10 02:45:47;;;;;;;5.60;2.87;;;;;;;7.92;57.03;99698.46;1663901;86;21185;-59
2021/05/10 02:48:14;;;;;;;4.53;2.60;;;;;;;7.92;57.16;99707.25;1663874;86;21031;-59
2021/05/10 02:50:42;;;;;;;3.00;2.67;;;;;;;7.92;57.22;99703.77;1663833;86;21610;-58
2021/05/10 02:53:10;;;;;;;3.60;2.90;;;;;;;7.93;57.29;99700.95;1667526;85;21446;-58
2021/05/10 02:55:37;;;;;;;3.30;2.90;;;;;;;7.93;57.36;99706.73;1636792;87;22845;-58
2021/05/10 02:58:05;;;;;;;4.10;2.85;;;;;;;7.95;57.40;99707.45;1669351;86;21205;-58
2021/05/10 03:00:33;;;;;;;3.20;2.87;;;;;;;7.99;57.42;99702.18;1654352;86;21172;-58
2021/05/10 03:03:00;;;;;;;2.80;2.60;;;;;;;8.06;57.33;99707.22;1677720;84;21095;-58
2021/05/10 03:05:29;;;;;;;3.10;2.60;;;;;;;8.14;57.19;99709.12;1667936;86;21148;-58
2021/05/10 03:07:58;;;;;;;2.83;2.58;;;;;;;8.23;57.00;99710.41;1662556;85;21381;-59
2021/05/10 03:10:26;;;;;;;2.67;2.47;;;;;;;8.42;56.65;99714.25;1667473;84;21151;-58
2021/05/10 03:12:54;;;;;;;4.37;3.00;;;;;;;8.72;56.04;99713.53;1660972;84;21016;-59
2021/05/10 03:15:22;;;;;;;3.45;3.02;;;;;;;9.00;55.33;99705.31;1671899;84;21130;-58
2021/05/10 03:17:52;;;;;;;5.45;2.35;;;;;;;9.26;54.73;99710.63;1651515;86;21196;-59
2021/05/10 03:20:22;;;;;;;3.80;3.05;;;;;;;9.48;54.12;99712.77;1669419;85;21390;-59
2021/05/10 03:22:53;;;;;;;3.08;2.75;;;;;;;9.66;53.55;99709.55;1668449;85;21174;-59
2021/05/10 03:25:21;;;;;;;4.30;2.90;;;;;;;9.81;53.25;99709.27;1643610;86;21162;-58
2021/05/10 03:27:51;;;;;;;4.28;2.20;;;;;;;10.02;52.81;99714.66;1668047;86;21120;-58
2021/05/10 03:30:21;;;;;;;2.62;2.40;;;;;;;10.18;52.38;99709.43;1667997;85;21058;-60
2021/05/10 03:32:49;;;;;;;2.70;2.50;;;;;;;10.35;52.00;99708.48;1670402;85;22305;-59
2021/05/10 03:35:16;;;;;;;2.70;2.50;;;;;;;10.49;51.61;99711.33;1668070;86;21709;-58
2021/05/10 03:37:45;;;;;;;3.35;2.80;;;;;;;10.67;51.12;99709.84;1668112;86;21160;-58
2021/05/10 03:40:15;;;;;;;4.83;2.70;;;;;;;10.77;50.71;99716.33;1677030;84;21199;-58
2021/05/10 03:42:44;;;;;;;2.85;2.58;;;;;;;10.91;50.39;99716.52;1691828;84;21204;-58
2021/05/10 03:45:13;;;;;;;2.95;2.65;;;;;;;11.10;49.89;99709.53;1678592;84;21212;-59
2021/05/10 03:47:40;;;;;;;3.65;2.65;;;;;;;11.27;49.60;99724.13;1678602;85;20986;-59
2021/05/10 03:50:14;;;;;;;5.60;2.47;;;;;;;11.47;49.23;99721.45;1678575;84;21108;-59
2021/05/10 03:52:42;;;;;;;2.92;2.62;;;;;;;11.69;48.66;99726.07;1680764;84;21195;-59
2021/05/10 03:55:16;;;;;;;2.72;2.37;;;;;;;11.92;48.25;99728.31;1678897;84;21076;-59
2021/05/10 03:57:44;;;;;;;2.60;2.15;;;;;;;12.15;47.76;99724.41;1645287;86;22296;-59
2021/05/10 04:00:13;;;;;;;2.85;2.30;;;;;;;12.36;47.10;99728.09;1644117;85;21088;-60
2021/05/10 04:02:43;;;;;;;6.12;2.52;;;;;;;12.59;46.83;99732.64;1649122;86;21199;-60
2021/05/10 04:10:35;;;;;;;2.37;2.12;;;;;;;13.32;45.29;99723.57;1649759;86;21581;-60
2021/05/10 04:15:33;;;;;;;3.27;1.98;;;;;;;13.76;44.48;99723.59;1641070;86;21580;-58
2021/05/10 04:18:01;;;;;;;2.08;1.90;;;;;;;14.06;43.88;99726.56;1614637;87;21181;-58
2021/05/10 04:20:29;;;;;;;2.62;2.30;;;;;;;14.26;42.96;99725.48;1629936;86;21182;-59
2021/05/10 04:22:56;;;;;;;2.60;2.40;;;;;;;14.34;42.81;99735.58;1641962;86;21451;-59
2021/05/10 04:25:25;;;;;;;2.65;2.10;;;;;;;14.48;42.45;99735.23;1622198;87;21651;-60
2021/05/10 04:27:53;;;;;;;4.62;2.22;;;;;;;14.66;42.19;99734.30;1641283;86;21176;-59
2021/05/10 04:30:24;;;;;;;3.45;2.10;;;;;;;14.83;42.07;99743.22;1643080;85;21159;-59
2021/05/10 04:32:59;;;;;;;3.47;1.90;;;;;;;15.12;41.60;99742.80;1638262;86;21210;-61
2021/05/10 04:35:26;;;;;;;3.72;2.10;;;;;;;15.38;40.81;99745.69;1642794;86;21279;-59
2021/05/10 04:37:55;;;;;;;3.30;2.50;;;;;;;15.56;40.36;99746.56;1640858;87;21151;-59
2021/05/10 04:40:22;;;;;;;3.55;1.82;;;;;;;15.73;39.98;99746.06;1654400;85;21052;-61
2021/05/10 04:42:50;;;;;;;3.35;1.87;;;;;;;15.94;39.20;99745.98;1670920;84;21609;-58
2021/05/10 04:45:17;;;;;;;2.25;2.00;;;;;;;15.98;39.32;99742.41;1669601;84;21094;-58
2021/05/10 04:47:47;;;;;;;5.42;2.30;;;;;;;16.06;39.13;99748.92;1668907;84;21368;-60
2021/05/10 04:50:14;;;;;;;2.55;2.20;;;;;;;16.11;39.18;99756.39;1685218;84;21199;-58
2021/05/10 04:52:44;;;;;;;2.55;1.95;;;;;;;16.28;39.21;99753.67;1663892;85;21159;-61
2021/05/10 04:55:12;;;;;;;2.30;2.10;;;;;;;16.38;38.73;99764.86;1661592;85;20941;-58
2021/05/10 04:57:40;;;;;;;2.10;1.90;;;;;;;16.38;38.72;99758.98;1662843;86;21733;-58
2021/05/10 05:00:11;;;;;;;2.75;1.95;;;;;;;16.52;38.85;99758.52;1646434;86;22933;-59
2021/05/10 05:02:38;;;;;;;3.72;2.00;;;;;;;16.72;38.14;99772.03;1656991;85;21171;-60
2021/05/10 05:05:10;;;;;;;2.02;1.82;;;;;;;16.79;38.02;99762.16;1691809;84;21203;-59
2021/05/10 05:07:39;;;;;;;2.05;1.87;;;;;;;16.96;37.66;99764.25;1678343;84;21149;-62
2021/05/10 05:10:11;;;;;;;2.05;1.77;;;;;;;17.15;37.44;99758.05;1672465;84;21158;-58
2021/05/10 05:12:38;;;;;;;1.90;1.80;;;;;;;17.23;37.35;99763.23;1670091;84;21388;-60
2021/05/10 05:15:08;;;;;;;2.80;1.77;;;;;;;17.46;37.10;99762.00;1648281;86;22331;-59
2021/05/10 05:17:36;;;;;;;2.20;1.67;;;;;;;17.60;36.64;99754.24;1642779;86;21155;-58
2021/05/10 05:20:05;;;;;;;2.52;1.75;;;;;;;17.75;36.52;99757.02;1645388;85;21180;-61
2021/05/10 05:22:33;;;;;;;2.10;1.85;;;;;;;17.98;36.27;99756.58;1642270;87;21673;-59
2021/05/10 05:25:03;;;;;;;2.35;1.40;;;;;;;18.24;36.05;99760.53;1642445;86;21217;-61
2021/05/10 05:27:30;;;;;;;1.70;1.60;;;;;;;18.50;34.96;99760.97;1643786;86;21163;-60
2021/05/10 05:29:58;;;;;;;2.85;1.62;;;;;;;18.68;34.66;99752.17;1642326;87;21092;-60
2021/05/10 05:32:25;;;;;;;2.47;1.77;;;;;;;18.88;34.92;99755.56;1642199;87;21176;-61
2021/05/10 05:34:54;;;;;;;2.55;1.67;;;;;;;19.17;33.82;99761.70;1642219;87;21180;-62
2021/05/10 05:37:21;;;;;;;2.65;2.10;;;;;;;19.23;33.54;99755.44;1651359;86;21224;-63
2021/05/10 05:39:49;;;;;;;3.00;1.60;;;;;;;19.21;33.72;99758.88;1684780;84;21650;-61
2021/05/10 05:42:17;;;;;;;2.62;1.62;;;;;;;19.15;33.28;99760.27;1676755;84;20973;-59
2021/05/10 05:44:49;;;;;;;4.72;1.87;;;;;;;19.03;34.22;99758.81;1671923;84;21163;-58
2021/05/10 05:47:22;;;;;;;2.92;1.60;;;;;;;19.24;34.40;99763.02;1680785;84;21187;-59
2021/05/10 05:49:45;;;;;;;1.98;1.77;;;;;;;19.59;33.81;99759.62;1665282;84;21389;-61
2021/05/10 05:52:12;;;;;;;3.08;1.82;;;;;;;19.94;32.90;99759.08;1676757;84;21250;-61
2021/05/10 05:54:40;;;;;;;1.82;1.52;;;;;;;20.14;32.33;99766.42;1599565;84;21135;-60
2021/05/10 05:57:07;;;;;;;2.83;1.60;;;;;;;20.28;32.23;99762.57;1659860;84;21625;-60
2021/05/10 05:59:35;;;;;;;3.92;2.10;;;;;;;20.47;31.88;99766.88;1662215;84;21211;-60
2021/05/10 06:02:02;;;;;;;2.27;1.57;;;;;;;20.50;31.54;99774.55;1639120;85;21419;-60
2021/05/10 06:04:29;;;;;;;1.70;1.50;;;;;;;20.49;31.53;99768.03;1668018;85;21135;-60
2021/05/10 06:06:56;;;;;;;1.52;1.30;;;;;;;20.58;31.62;99770.18;1664932;84;21118;-62
2021/05/10 06:09:26;;;;;;;1.70;1.60;;;;;;;20.74;31.18;99764.14;1665103;84;21207;-59
2021/05/10 06:11:55;;;;;;;2.98;1.65;;;;;;;20.68;31.22;99780.44;1665319;84;21139;-59
2021/05/10 06:14:22;;;;;;;2.27;1.50;;;;;;;20.58;31.70;99780.16;1672340;84;21977;-59
2021/05/10 06:16:50;;;;;;;3.80;1.92;;;;;;;20.41;31.53;99773.22;1666476;85;21127;-59
2021/05/10 06:19:17;;;;;;;2.62;1.70;;;;;;;20.29;32.05;99766.91;1683660;84;21613;-60
2021/05/10 06:21:45;;;;;;;3.12;1.52;;;;;;;20.31;32.33;99769.67;1667418;84;21615;-59
2021/05/10 06:24:12;;;;;;;7.30;1.62;;;;;;;20.44;32.14;99782.20;1662474;86;21210;-61
2021/05/10 06:26:40;;;;;;;3.70;1.20;;;;;;;20.53;31.65;99768.69;1662188;86;22131;-60
2021/05/10 06:29:08;;;;;;;3.70;1.77;;;;;;;20.63;31.82;99771.67;1662118;86;21176;-62
2021/05/10 06:31:35;;;;;;;2.67;1.67;;;;;;;20.57;31.71;99763.11;1662176;86;21581;-57
2021/05/10 06:34:05;;;;;;;1.75;1.37;;;;;;;20.57;32.12;99776.62;1661603;86;21735;-59
2021/05/10 06:36:33;;;;;;;3.70;1.52;;;;;;;20.63;32.02;99770.31;1675463;85;21231;-60
2021/05/10 06:39:00;;;;;;;3.55;1.50;;;;;;;20.74;31.80;99774.96;1646829;86;21998;-61
2021/05/10 06:41:28;;;;;;;2.47;1.62;;;;;;;20.77;31.83;99768.27;1663219;84;21177;-61
2021/05/10 06:43:55;;;;;;;1.52;1.42;;;;;;;20.89;31.95;99769.95;1670330;84;21021;-62
2021/05/10 06:46:23;;;;;;;2.37;1.20;;;;;;;20.99;31.39;99772.65;1669684;84;21168;-61
2021/05/10 06:48:51;;;;;;;3.22;1.57;;;;;;;20.81;31.53;99778.39;1678139;84;21191;-62
2021/05/10 06:51:19;;;;;;;2.42;1.40;;;;;;;20.73;31.97;99769.24;1639582;86;21396;-62
2021/05/10 06:53:46;;;;;;;2.77;1.50;;;;;;;20.80;32.40;99777.28;1668529;84;21195;-62
2021/05/10 06:56:13;;;;;;;2.35;1.57;;;;;;;20.99;31.95;99777.50;1667125;85;21244;-62
2021/05/10 06:58:41;;;;;;;2.12;1.50;;;;;;;21.17;31.60;99771.27;1670024;84;21209;-64
2021/05/10 07:01:08;;;;;;;1.92;1.42;;;;;;;21.39;31.49;99766.94;1655891;86;21152;-59
2021/05/10 07:03:36;;;;;;;2.12;1.50;;;;;;;21.57;30.97;99774.95;1681675;84;21642;-62
2021/05/10 07:06:04;;;;;;;2.90;1.37;;;;;;;21.64;31.17;99771.59;1651045;86;21191;-62
2021/05/10 07:08:31;;;;;;;1.87;1.47;;;;;;;21.65;30.89;99771.08;1664240;84;21179;-62
2021/05/10 07:10:59;;;;;;;2.90;1.60;;;;;;;21.77;31.27;99778.14;1681944;84;21093;-64
2021/05/10 07:13:27;;;;;;;2.17;1.20;;;;;;;21.85;30.55;99768.31;1651020;86;21193;-62
2021/05/10 07:15:54;;;;;;;2.80;1.55;;;;;;;21.75;30.31;99769.44;1668933;84;22086;-61
2021/05/10 07:18:22;;;;;;;4.22;2.20;;;;;;;21.70;30.51;99781.50;1668770;84;21220;-64
2021/05/10 07:20:53;;;;;;;4.15;1.40;;;;;;;21.68;30.57;99780.92;1666512;84;21541;-63
2021/05/10 07:23:21;;;;;;;3.70;1.27;;;;;;;21.68;30.84;99775.50;1668676;85;21202;-62
2021/05/10 07:25:50;;;;;;;2.42;1.72;;;;;;;21.74;31.34;99778.63;1670813;84;21144;-59
2021/05/10 07:28:19;;;;;;;2.65;1.60;;;;;;;21.87;30.25;99777.08;1665919;84;21450;-61
2021/05/10 07:30:48;;;;;;;2.10;1.60;;;;;;;21.86;30.68;99775.94;1670415;84;21206;-62
2021/05/10 07:33:16;;;;;;;1.55;1.45;;;;;;;21.90;30.80;99775.22;1668039;84;21204;-58
2021/05/10 07:35:44;;;;;;;2.10;1.67;;;;;;;21.95;30.85;99780.75;1665206;84;21226;-58
2021/05/10 07:38:12;;;;;;;1.85;1.45;;;;;;;22.01;30.95;99773.57;1668890;84;21159;-60
2021/05/10 07:40:40;;;;;;;2.10;1.37;;;;;;;22.10;30.96;99774.87;1668254;84;21341;-58
2021/05/10 07:43:07;;;;;;;2.27;1.70;;;;;;;22.10;30.91;99770.28;1676388;84;21230;-61
2021/05/10 07:45:36;;;;;;;2.50;1.87;;;;;;;22.21;31.05;99771.85;1673549;84;21150;-60
2021/05/10 07:48:05;;;;;;;1.90;1.60;;;;;;;22.44;30.49;99765.02;1673608;84;21050;-63
2021/05/10 07:50:33;;;;;;;2.80;1.35;;;;;;;22.71;29.97;99779.68;1673265;84;21201;-57
2021/05/10 07:53:01;;;;;;;1.57;1.47;;;;;;;22.95;29.68;99774.98;1679220;84;21219;-58
2021/05/10 07:55:29;;;;;;;2.77;1.50;;;;;;;22.96;29.46;99772.05;1677879;84;21149;-62
2021/05/10 07:57:57;;;;;;;1.98;1.57;;;;;;;22.90;29.98;99774.36;1681753;84;21181;-61
2021/05/10 08:00:29;;;;;;;2.27;1.50;;;;;;;22.83;29.15;99781.00;1676611;84;21151;-63
2021/05/10 08:02:54;;;;;;;1.60;1.50;;;;;;;22.62;29.34;99772.97;1672589;84;21218;-63
2021/05/10 08:05:22;;;;;;;2.08;1.50;;;;;;;22.51;29.59;99777.37;1673799;84;21294;-62
2021/05/10 08:07:50;;;;;;;1.92;1.25;;;;;;;22.59;29.78;99762.61;1672483;84;21043;-62
2021/05/10 08:10:20;;;;;;;1.45;1.35;;;;;;;22.77;29.14;99753.48;1678014;84;21797;-61
2021/05/10 08:12:48;;;;;;;1.67;1.57;;;;;;;22.95;28.86;99775.81;1674637;84;21618;-60
2021/05/10 08:15:17;;;;;;;2.17;1.17;;;;;;;22.85;28.39;99775.62;1676227;84;21177;-67
2021/05/10 08:17:46;;;;;;;1.42;1.12;;;;;;;22.67;28.83;99773.11;1673139;84;21453;-59
2021/05/10 08:20:16;;;;;;;2.67;2.00;;;;;;;22.81;28.64;99779.90;1677862;84;21070;-60
2021/05/10 08:22:46;;;;;;;2.72;1.55;;;;;;;23.13;28.32;99764.74;1675325;84;21187;-61
2021/05/10 08:25:13;;;;;;;2.00;1.50;;;;;;;23.45;28.18;99761.50;1693412;84;21138;-62
2021/05/10 08:27:42;;;;;;;3.22;1.42;;;;;;;23.75;27.94;99760.64;1681170;84;21128;-66
2021/05/10 08:30:12;;;;;;;4.03;1.52;;;;;;;24.00;27.62;99759.64;1676448;84;21228;-62
2021/05/10 08:32:40;;;;;;;1.95;1.35;;;;;;;23.89;26.00;99759.20;1676456;84;21164;-63
2021/05/10 08:35:09;;;;;;;1.20;1.00;;;;;;;23.63;26.47;99770.23;1677123;84;21079;-60
2021/05/10 08:37:37;;;;;;;2.80;1.87;;;;;;;23.31;26.81;99753.66;1677142;84;21374;-62
2021/05/10 08:40:07;;;;;;;1.82;1.72;;;;;;;23.06;26.81;99763.25;1674188;84;21214;-62
2021/05/10 08:42:35;;;;;;;2.30;1.60;;;;;;;23.09;26.53;99748.67;1664499;84;22089;-62
2021/05/10 08:45:05;;;;;;;1.80;1.45;;;;;;;23.10;26.39;99776.64;1662333;85;21214;-63
2021/05/10 08:47:32;;;;;;;1.47;1.37;;;;;;;23.13;26.71;99756.60;1660744;85;21193;-62
2021/05/10 08:50:03;;;;;;;2.37;2.00;;;;;;;23.33;26.36;99749.36;1701357;84;21131;-63
2021/05/10 08:52:30;;;;;;;1.60;1.50;;;;;;;23.53;26.89;99750.23;1701496;84;21190;-60
2021/05/10 08:55:03;;;;;;;1.55;1.37;;;;;;;23.68;26.53;99759.44;1698520;84;21091;-58
2021/05/10 08:57:30;;;;;;;1.60;1.37;;;;;;;23.78;26.19;99756.87;1670835;84;21107;-62
2021/05/10 08:59:58;;;;;;;2.00;1.72;;;;;;;23.72;26.37;99742.13;1668574;84;21118;-49
2021/05/10 09:02:32;;;;;;;2.75;1.90;;;;;;;23.65;26.40;99756.39;1691439;83;21150;-58
2021/05/10 09:05:16;;;;;;;3.40;1.30;;;;;;;23.59;25.88;99753.33;1668754;84;21534;-56
2021/05/10 09:07:44;;;;;;;4.08;1.30;;;;;;;23.47;25.92;99732.21;1670385;84;21225;-51
2021/05/10 09:10:13;;;;;;;2.47;1.45;;;;;;;23.47;26.37;99741.72;1701126;84;21142;-54
2021/05/10 09:12:52;;;;;;;2.37;1.12;;;;;;;23.51;26.33;99748.31;1701770;84;21098;-54
2021/05/10 09:15:24;;;;;;;2.92;1.57;;;;;;;23.46;25.81;99740.09;1694402;84;21008;-53
2021/05/10 09:17:57;;;;;;;3.75;2.08;;;;;;;23.41;26.79;99739.48;1641983;85;21187;-56
2021/05/10 09:20:28;;;;;;;2.70;1.50;;;;;;;23.07;26.58;99727.72;1701689;84;21297;-63
2021/05/10 09:23:04;;;;;;;2.77;1.30;;;;;;;22.87;27.15;99744.17;1643806;85;21167;-54
2021/05/10 09:25:35;;;;;;;2.10;1.27;;;;;;;22.76;27.28;99726.09;1698715;84;21099;-58
2021/05/10 09:28:25;;;;;;;2.67;1.57;;;;;;;22.86;28.03;99728.98;1664825;84;21212;-60
2021/05/10 09:30:58;;;;;;;1.87;1.20;;;;;;;22.92;27.50;99729.34;1670314;84;21170;-62
2021/05/10 09:33:27;;;;;;;1.10;0.95;;;;;;;22.67;27.37;99737.86;1667948;84;21378;-59
2021/05/10 09:35:58;;;;;;;2.02;1.30;;;;;;;22.12;27.79;99735.64;1668153;84;21182;-63
2021/05/10 09:38:27;;;;;;;1.65;1.50;;;;;;;21.87;28.29;99724.80;1669058;84;21141;-67
2021/05/10 09:40:57;;;;;;;1.75;1.57;;;;;;;21.74;28.85;99724.48;1696632;84;21190;-69
2021/05/10 09:43:35;;;;;;;4.50;1.37;;;;;;;21.77;28.98;99725.89;1672995;84;21504;-58
2021/05/10 09:46:07;;;;;;;3.10;1.35;;;;;;;21.89;28.83;99716.72;1677986;84;21220;-58
2021/05/10 09:48:38;;;;;;;4.10;1.05;;;;;;;22.18;28.44;99712.72;1673918;84;21624;-69
2021/05/10 09:51:13;;;;;;;2.12;1.57;;;;;;;22.29;28.07;99730.28;1678076;84;21584;-65
2021/05/10 09:53:52;;;;;;;3.12;1.92;;;;;;;22.34;27.56;99716.86;1678645;84;21036;-72
2021/05/10 09:59:00;;;;;;;1.42;0.70;;;;;;;21.87;27.98;99726.98;1676366;83;21209;-64
2021/05/10 10:01:46;;;;;;;2.10;1.20;;;;;;;21.90;28.08;99702.66;1677239;84;21169;-60
2021/05/10 10:04:16;;;;;;;1.27;1.17;;;;;;;21.96;28.01;99710.64;1679785;84;21607;-60
2021/05/10 10:06:47;;;;;;;2.02;1.30;;;;;;;21.98;28.55;99689.55;1648304;85;21169;-61
2021/05/10 10:09:15;;;;;;;3.52;1.00;;;;;;;22.18;28.08;99687.80;1675451;84;21202;-67
2021/05/10 10:11:43;;;;;;;2.10;0.90;;;;;;;22.03;28.25;99688.85;1681337;84;21739;-64
2021/05/10 10:14:14;;;;;;;1.50;1.32;;;;;;;22.01;28.67;99692.30;1677652;84;21103;-70
2021/05/10 10:16:43;;;;;;;2.62;1.02;;;;;;;22.04;28.08;99672.34;1679162;84;21671;-66
2021/05/10 10:19:11;;;;;;;1.00;0.82;;;;;;;22.21;28.25;99680.55;1671533;84;21103;-63
2021/05/10 10:21:41;;;;;;;8.55;1.32;;;;;;;22.40;27.95;99676.58;1674218;84;21108;-65
2021/05/10 10:24:11;;;;;;;2.75;1.07;;;;;;;22.48;26.61;99678.07;1677818;84;21775;-63
2021/05/10 10:26:40;;;;;;;3.45;0.98;;;;;;;22.26;27.48;99686.08;1677266;84;21118;-63
2021/05/10 10:29:13;;;;;;;1.82;1.10;;;;;;;22.05;26.71;99677.24;1680925;83;21127;-61
2021/05/10 10:31:48;;;;;;;1.12;0.90;;;;;;;21.96;27.85;99665.95;1648285;85;21079;-63
2021/05/10 10:34:33;;;;;;;1.20;1.10;;;;;;;22.01;27.75;99674.70;1678588;84;21139;-62
2021/05/10 10:37:02;;;;;;;1.10;1.00;;;;;;;22.05;27.20;99678.07;1675652;84;21161;-64
2021/05/10 10:39:33;;;;;;;2.62;1.10;;;;;;;22.10;26.95;99659.73;1679159;84;21585;-65
2021/05/10 10:42:12;;;;;;;4.05;1.10;;;;;;;22.20;28.16;99653.69;1678189;83;21052;-68
2021/05/10 10:44:57;;;;;;;2.35;1.20;;;;;;;22.13;27.91;99661.41;1663107;84;21020;-65
2021/05/10 10:47:53;;;;;;;;;;;;;;;22.05;26.85;99663.17;1666532;84;21155;-67
2021/05/10 10:50:18;;;;;;;1.65;1.40;;;;;;;21.68;27.46;99678.04;1663896;84;21398;-67
2021/05/10 10:53:00;;;;;;;2.65;1.02;;;;;;;21.40;27.40;99654.94;1663872;85;37531;-65
2021/05/10 10:55:38;;;;;;;4.28;1.10;;;;;;;21.36;28.49;99642.92;1671633;84;21049;-67
2021/05/10 10:58:22;;;;;;;4.22;1.20;;;;;;;21.52;27.83;99661.98;1664071;84;21491;-66
2021/05/10 11:01:06;;;;;;;1.55;1.10;;;;;;;21.51;28.19;99671.68;1664430;84;21156;-62
2021/05/10 11:03:35;;;;;;;0.93;0.93;;;;;;;21.51;27.66;99639.20;1663997;84;21384;-68
2021/05/10 11:06:05;;;;;;;1.90;1.00;;;;;;;21.39;27.47;99642.45;1663963;84;21264;-67
2021/05/10 11:08:52;;;;;;;2.58;0.80;;;;;;;21.29;27.97;99646.28;1673076;84;21027;-66
2021/05/10 11:11:35;;;;;;;2.22;1.30;;;;;;;21.31;28.25;99627.92;1664175;84;21566;-64
2021/05/10 11:14:03;;;;;;;2.40;1.00;;;;;;;21.46;28.76;99647.21;1637559;85;21636;-65
2021/05/10 11:16:51;;;;;;;3.62;1.35;;;;;;;21.64;27.64;99624.06;1638869;86;21376;-63
2021/05/10 11:19:32;;;;;;;1.10;1.00;;;;;;;21.70;28.57;99623.12;1669706;84;21084;-69
2021/05/10 11:22:31;;;;;;;2.58;1.10;;;;;;;21.67;27.57;99625.47;1664234;84;21162;-65
2021/05/10 11:25:36;;;;;;;1.10;0.98;;;;;;;21.67;28.30;99607.34;1641955;85;21091;-67
2021/05/10 11:28:30;;;;;;;2.60;1.20;;;;;;;21.75;27.99;99615.09;1669272;84;21164;-58
2021/05/10 11:31:07;;;;;;;1.60;0.90;;;;;;;21.69;28.60;99607.92;1695424;84;21177;-60
2021/05/10 11:33:59;;;;;;;1.82;1.10;;;;;;;21.71;28.56;99599.05;1702616;84;21027;-59
2021/05/10 11:36:30;;;;;;;2.55;1.42;;;;;;;21.85;28.90;99615.30;1673985;84;21049;-62
2021/05/10 11:39:08;;;;;;;2.40;1.10;;;;;;;21.83;28.03;99592.23;1673776;84;21143;-54
2021/05/10 11:41:45;;;;;;;1.55;1.15;;;;;;;21.83;28.58;99592.23;1703122;83;21572;-58
2021/05/10 11:44:28;;;;;;;2.27;1.37;;;;;;;21.87;27.68;99602.41;1667644;84;21427;-55
2021/05/10 11:46:58;;;;;;;1.25;1.15;;;;;;;21.65;27.60;99609.47;1666557;84;21235;-62
2021/05/10 11:49:46;;;;;;;1.12;1.02;;;;;;;21.43;28.02;99593.03;1671588;84;21603;-60
2021/05/10 11:52:25;;;;;;;1.30;1.20;;;;;;;21.41;28.56;99588.91;1666197;84;21127;-59
2021/05/10 11:54:59;;;;;;;2.20;1.05;;;;;;;21.38;28.30;99581.27;1665853;84;21707;-59
2021/05/10 11:57:29;;;;;;;1.40;1.30;;;;;;;21.32;28.60;99595.24;1668945;84;21382;-62
2021/05/10 12:00:15;;;;;;;2.87;1.45;;;;;;;21.31;28.70;99585.98;1684268;84;21098;-63
2021/05/10 12:02:45;;;;;;;1.33;0.87;;;;;;;21.31;28.71;99585.47;1653550;85;21121;-60